Time;durP1;ratioP1;P1;durP2;ratioP2;P2;SDS_P1;SDS_P2;PMS_P1;PMS_P2;Temp;Humidity;BMP_temperature;BMP_pressure;BME280_temperature;BME280_humidity;BME280_pressure;Samples;Min_cycle;Max_cycle;Signal;HPM_P1;HPM_P2
2023/12/27 00:01:44;;;;;;;14.60;2.03;;;;;;;4.66;77.90;101339.56;4935903;29;20050;-75
2023/12/27 00:04:11;;;;;;;23.20;2.05;;;;;;;4.53;77.90;101349.25;4936063;29;20071;-74
2023/12/27 00:06:38;;;;;;;19.73;2.05;;;;;;;4.51;78.18;101351.16;4935792;29;20072;-73
2023/12/27 00:09:06;;;;;;;10.80;2.40;;;;;;;4.45;78.73;101355.00;4936158;29;20055;-75
2023/12/27 00:11:34;;;;;;;20.95;1.90;;;;;;;4.48;77.88;101362.91;4936571;29;20497;-73
2023/12/27 00:14:01;;;;;;;16.77;2.70;;;;;;;4.23;79.17;101367.84;4936026;29;20071;-73
2023/12/27 00:16:29;;;;;;;9.60;1.67;;;;;;;4.38;78.98;101367.03;4936041;29;20063;-73
2023/12/27 00:18:56;;;;;;;11.30;2.20;;;;;;;4.22;80.64;101374.16;4936060;29;20051;-73
2023/12/27 00:21:23;;;;;;;12.35;2.38;;;;;;;4.16;79.98;101378.00;4936080;29;20044;-73
2023/12/27 00:23:49;;;;;;;18.67;2.58;;;;;;;4.13;79.45;101388.91;4936703;29;20055;-75
2023/12/27 00:26:16;;;;;;;13.15;2.30;;;;;;;4.04;80.75;101384.88;4935388;29;20497;-75
2023/12/27 00:28:42;;;;;;;14.18;2.03;;;;;;;4.20;78.81;101379.59;4936238;29;20181;-75
2023/12/27 00:31:09;;;;;;;14.73;2.22;;;;;;;4.14;79.68;101382.59;4936171;29;20543;-75
2023/12/27 00:33:36;;;;;;;13.95;1.83;;;;;;;4.06;80.91;101382.97;4935681;29;20051;-75
2023/12/27 00:36:04;;;;;;;15.27;2.15;;;;;;;3.93;80.46;101381.84;4935631;29;20502;-75
2023/12/27 00:38:30;;;;;;;17.45;2.15;;;;;;;4.07;79.69;101384.72;4935484;29;20492;-75
2023/12/27 00:40:59;;;;;;;14.43;2.78;;;;;;;4.05;79.26;101389.31;4935437;29;20044;-75
2023/12/27 00:43:26;;;;;;;10.48;2.25;;;;;;;3.90;80.11;101392.75;4935406;29;20504;-75
2023/12/27 00:45:52;;;;;;;15.98;2.25;;;;;;;3.94;80.98;101405.09;4935455;29;20063;-74
2023/12/27 00:48:19;;;;;;;14.13;2.30;;;;;;;3.98;80.68;101397.72;4935006;29;20048;-75
2023/12/27 00:50:46;;;;;;;16.42;1.95;;;;;;;3.73;81.95;101408.81;4934563;29;20568;-75
2023/12/27 00:53:13;;;;;;;22.58;2.00;;;;;;;3.81;81.96;101410.16;4935336;29;20449;-75
2023/12/27 00:55:39;;;;;;;10.18;2.55;;;;;;;3.63;81.63;101426.28;4935137;29;20112;-75
2023/12/27 00:58:06;;;;;;;14.02;2.03;;;;;;;3.72;82.34;101425.84;4935631;29;20051;-76
2023/12/27 01:00:33;;;;;;;14.27;1.85;;;;;;;3.53;82.72;101426.72;4934917;29;20107;-74
2023/12/27 01:03:00;;;;;;;11.60;1.80;;;;;;;3.64;82.09;101431.56;4934820;29;20087;-75
2023/12/27 01:05:28;;;;;;;17.02;2.47;;;;;;;3.74;82.99;101429.31;4935162;29;20047;-74
2023/12/27 01:07:54;;;;;;;26.15;3.63;;;;;;;3.73;82.73;101435.63;4934892;29;20071;-74
2023/12/27 01:10:21;;;;;;;17.33;1.95;;;;;;;3.80;81.40;101440.63;4935643;29;20039;-74
2023/12/27 01:12:49;;;;;;;22.95;3.08;;;;;;;3.81;82.09;101438.81;4934950;29;20067;-75
2023/12/27 01:15:16;;;;;;;24.85;2.70;;;;;;;3.68;83.57;101456.47;4934402;29;20054;-75
2023/12/27 01:17:43;;;;;;;12.15;1.90;;;;;;;3.72;82.80;101460.72;4934460;29;20489;-75
2023/12/27 01:20:10;;;;;;;17.98;2.22;;;;;;;3.68;83.96;101460.00;4934537;29;20055;-75
2023/12/27 01:22:37;;;;;;;8.32;1.73;;;;;;;3.81;81.23;101466.50;4918056;29;20059;-75
2023/12/27 01:25:04;;;;;;;14.73;2.13;;;;;;;3.66;82.62;101474.44;4934495;29;20080;-74
2023/12/27 01:27:30;;;;;;;22.98;1.85;;;;;;;3.75;82.84;101474.00;4934479;29;20051;-74
2023/12/27 01:29:57;;;;;;;17.75;2.40;;;;;;;3.91;81.69;101471.44;4917428;29;20250;-74
2023/12/27 01:32:24;;;;;;;21.10;2.10;;;;;;;3.79;81.16;101483.66;4934795;29;20052;-74
2023/12/27 01:34:51;;;;;;;17.67;2.17;;;;;;;3.77;82.29;101485.53;4934763;29;20079;-74
2023/12/27 01:37:18;;;;;;;12.52;2.17;;;;;;;3.61;82.66;101497.94;4934540;29;20171;-74
2023/12/27 01:39:45;;;;;;;20.10;2.30;;;;;;;3.64;82.14;101501.31;4934507;29;20492;-74
2023/12/27 01:42:11;;;;;;;12.30;1.67;;;;;;;3.75;82.11;101503.53;4934251;29;20047;-74
2023/12/27 01:44:38;;;;;;;15.50;2.60;;;;;;;3.61;82.70;101508.66;4933936;29;20074;-74
2023/12/27 01:47:05;;;;;;;19.85;3.13;;;;;;;3.63;83.01;101504.09;4934034;29;20086;-74
2023/12/27 01:49:32;;;;;;;18.65;2.70;;;;;;;3.53;83.96;101517.06;4934043;29;20102;-74
2023/12/27 01:51:59;;;;;;;15.90;1.80;;;;;;;3.58;83.24;101515.03;4934000;29;20126;-75
2023/12/27 01:54:25;;;;;;;15.02;2.88;;;;;;;3.56;82.76;101517.81;4933845;29;20048;-74
2023/12/27 01:56:52;;;;;;;15.85;2.45;;;;;;;3.61;82.99;101516.69;4934011;29;20058;-72
2023/12/27 01:59:19;;;;;;;15.63;1.88;;;;;;;3.50;83.72;101522.56;4934366;29;20072;-73
2023/12/27 02:01:46;;;;;;;14.55;2.13;;;;;;;3.57;83.43;101524.91;4932786;29;20044;-73
2023/12/27 02:04:13;;;;;;;21.25;2.20;;;;;;;3.55;83.29;101521.41;4933527;29;20493;-73
2023/12/27 02:07:21;;;;;;;10.32;2.10;;;;;;;3.47;82.81;101510.19;4933543;29;20496;-75
2023/12/27 02:09:56;;;;;;;17.75;2.25;;;;;;;3.52;82.26;101518.00;4932864;29;20044;-75
2023/12/27 02:12:29;;;;;;;22.23;3.08;;;;;;;3.52;82.93;101516.19;4933642;29;20425;-74
2023/12/27 02:14:56;;;;;;;16.85;2.55;;;;;;;3.27;84.31;101521.78;4933707;29;20130;-74
2023/12/27 02:17:25;;;;;;;18.67;2.75;;;;;;;3.47;83.68;101533.44;4933207;29;20047;-73
2023/12/27 02:19:53;;;;;;;17.92;2.60;;;;;;;3.37;84.62;101521.38;4933487;29;20067;-73
2023/12/27 02:22:20;;;;;;;22.95;2.50;;;;;;;3.36;84.35;101530.34;4933914;29;20052;-74
2023/12/27 02:24:53;;;;;;;15.05;1.65;;;;;;;3.25;84.17;101529.03;4933235;29;20098;-74
2023/12/27 02:27:20;;;;;;;22.55;2.50;;;;;;;3.29;84.67;101527.09;4933377;29;20393;-74
2023/12/27 02:29:47;;;;;;;29.50;2.30;;;;;;;3.24;84.01;101526.44;4933256;29;20044;-74
2023/12/27 02:32:14;;;;;;;24.10;2.60;;;;;;;3.31;84.13;101524.34;4932468;29;20054;-74
2023/12/27 02:34:40;;;;;;;21.95;2.25;;;;;;;3.35;84.04;101529.50;4932989;29;20496;-74
2023/12/27 02:37:07;;;;;;;11.60;2.08;;;;;;;3.39;84.07;101525.75;4916082;29;20048;-76
2023/12/27 02:39:34;;;;;;;21.55;2.28;;;;;;;3.24;84.32;101518.38;4932867;28;20055;-73
2023/12/27 02:42:00;;;;;;;18.90;2.70;;;;;;;3.45;83.09;101529.94;4932796;29;20059;-74
2023/12/27 02:44:27;;;;;;;28.10;2.92;;;;;;;3.44;82.81;101523.72;4932851;29;20465;-74
2023/12/27 02:46:54;;;;;;;25.35;2.45;;;;;;;3.35;83.80;101523.25;4932696;29;20433;-73
2023/12/27 02:49:20;;;;;;;18.15;2.67;;;;;;;3.33;83.97;101528.69;4933198;29;20052;-74
2023/12/27 02:51:48;;;;;;;13.57;1.95;;;;;;;3.33;83.47;101509.06;4933314;29;20114;-74
2023/12/27 02:54:15;;;;;;;19.83;2.17;;;;;;;3.31;83.84;101511.81;4922210;29;20052;-75
2023/12/27 02:56:41;;;;;;;13.95;2.13;;;;;;;3.22;83.99;101513.09;4913476;29;20421;-75
2023/12/27 02:59:10;;;;;;;12.65;1.95;;;;;;;3.31;84.11;101516.31;4914013;29;20181;-75
2023/12/27 03:01:37;;;;;;;10.98;2.08;;;;;;;3.35;82.89;101516.09;4914105;29;20512;-75
2023/12/27 03:04:03;;;;;;;17.25;2.38;;;;;;;3.25;83.63;101517.44;4914021;29;20063;-74
2023/12/27 03:06:30;;;;;;;14.50;2.08;;;;;;;3.26;84.18;101525.41;4913852;29;20473;-75
2023/12/27 03:08:57;;;;;;;18.98;2.05;;;;;;;3.25;83.44;101522.81;4914200;29;20103;-74
2023/12/27 03:11:23;;;;;;;20.80;3.13;;;;;;;3.18;83.97;101527.56;4913575;29;20052;-74
2023/12/27 03:13:51;;;;;;;17.13;3.28;;;;;;;3.07;84.59;101523.63;4897636;29;20524;-75
2023/12/27 03:16:19;;;;;;;12.98;2.05;;;;;;;3.16;84.70;101528.56;4914013;29;20062;-75
2023/12/27 03:18:46;;;;;;;22.20;2.40;;;;;;;3.20;84.36;101522.16;4913313;29;20093;-75
2023/12/27 03:21:12;;;;;;;16.48;1.98;;;;;;;2.98;85.01;101520.41;4913937;29;20052;-74
2023/12/27 03:23:39;;;;;;;18.88;2.28;;;;;;;3.21;83.66;101534.63;4914150;29;20401;-75
2023/12/27 03:26:06;;;;;;;21.75;2.42;;;;;;;3.28;82.77;101538.75;4913925;29;20056;-76
2023/12/27 03:28:32;;;;;;;19.77;2.38;;;;;;;3.32;82.54;101529.63;4913854;29;20052;-74
2023/12/27 03:30:59;;;;;;;19.23;2.40;;;;;;;3.20;83.89;101527.53;4913867;29;20473;-75
2023/12/27 03:33:26;;;;;;;23.85;2.55;;;;;;;3.24;83.52;101526.44;4913437;29;20055;-74
2023/12/27 03:35:52;;;;;;;20.35;2.35;;;;;;;3.27;83.20;101531.63;4913627;29;20051;-73
2023/12/27 03:38:19;;;;;;;12.95;2.03;;;;;;;3.21;83.58;101534.63;4913943;29;20047;-75
2023/12/27 03:40:46;;;;;;;18.23;2.63;;;;;;;3.16;83.26;101534.81;4913116;29;20479;-75
2023/12/27 03:43:12;;;;;;;15.65;2.60;;;;;;;3.19;83.42;101539.19;4913515;29;21555;-75
2023/12/27 03:45:39;;;;;;;19.40;2.38;;;;;;;3.23;82.99;101538.09;4913476;29;20048;-75
2023/12/27 03:48:06;;;;;;;16.70;1.95;;;;;;;3.03;84.18;101530.94;4907352;29;20566;-75
2023/12/27 03:50:33;;;;;;;17.38;2.92;;;;;;;2.97;84.39;101544.59;4894278;29;20041;-75
2023/12/27 03:53:00;;;;;;;20.92;2.53;;;;;;;3.06;84.22;101537.97;4894536;29;20473;-75
2023/12/27 03:55:26;;;;;;;18.90;2.45;;;;;;;3.06;83.82;101548.69;4894604;29;20525;-74
2023/12/27 03:57:54;;;;;;;20.38;2.92;;;;;;;3.08;83.78;101536.94;4894693;29;20422;-74
2023/12/27 04:00:21;;;;;;;13.90;2.05;;;;;;;3.16;83.24;101536.63;4895115;29;20048;-74
2023/12/27 04:02:48;;;;;;;25.23;2.40;;;;;;;3.14;83.40;101551.91;4894792;29;20123;-75
2023/12/27 04:05:14;;;;;;;20.10;3.05;;;;;;;3.07;83.54;101561.16;4894094;29;20060;-75
2023/12/27 04:07:41;;;;;;;18.90;3.08;;;;;;;3.14;83.08;101552.78;4894458;29;20044;-75
2023/12/27 04:10:08;;;;;;;9.45;1.77;;;;;;;3.08;83.13;101557.53;4894437;29;20052;-75
2023/12/27 04:12:35;;;;;;;14.98;2.70;;;;;;;2.94;83.44;101559.00;4894031;29;20049;-75
2023/12/27 04:15:03;;;;;;;13.32;2.63;;;;;;;2.87;84.22;101560.19;4894193;29;20505;-75
2023/12/27 04:17:30;;;;;;;16.70;2.08;;;;;;;2.99;84.07;101564.16;4894217;29;20520;-74
2023/12/27 04:19:56;;;;;;;33.00;3.78;;;;;;;2.94;83.28;101556.34;4894524;29;20052;-74
2023/12/27 04:22:23;;;;;;;30.85;3.53;;;;;;;2.95;83.44;101558.06;4894397;29;20049;-74
2023/12/27 04:24:50;;;;;;;17.42;1.92;;;;;;;2.74;84.16;101564.34;4896287;29;20052;-76
2023/12/27 04:27:16;;;;;;;14.15;2.40;;;;;;;2.76;85.05;101558.91;4897755;29;20501;-75
2023/12/27 04:29:43;;;;;;;22.63;2.40;;;;;;;2.71;85.38;101565.31;4897706;29;20060;-74
2023/12/27 04:32:09;;;;;;;13.77;3.08;;;;;;;2.73;86.32;101573.31;4880956;29;20470;-75
2023/12/27 04:34:36;;;;;;;15.10;2.50;;;;;;;2.56;85.77;101586.53;4897714;29;20104;-74
2023/12/27 04:37:03;;;;;;;16.63;2.45;;;;;;;2.70;85.99;101573.44;4897834;29;20056;-75
2023/12/27 04:39:32;;;;;;;16.25;2.08;;;;;;;2.46;86.78;101591.41;4897947;29;20100;-74
2023/12/27 04:41:59;;;;;;;27.30;2.45;;;;;;;2.45;86.77;101583.44;4897742;29;20048;-74
2023/12/27 04:44:26;;;;;;;16.65;2.72;;;;;;;2.61;86.36;101590.75;4897675;29;20361;-74
2023/12/27 04:46:52;;;;;;;19.02;2.53;;;;;;;2.80;85.31;101590.84;4898019;29;20057;-74
2023/12/27 04:49:19;;;;;;;22.48;3.08;;;;;;;2.70;85.10;101584.16;4897586;29;20120;-75
2023/12/27 04:51:46;;;;;;;16.17;2.10;;;;;;;2.60;85.63;101588.16;4897520;29;20049;-74
2023/12/27 04:54:13;;;;;;;17.02;2.45;;;;;;;2.56;85.97;101591.91;4907119;29;20135;-74
2023/12/27 04:56:39;;;;;;;24.83;3.58;;;;;;;2.56;86.06;101591.91;4916245;29;20048;-74
2023/12/27 04:59:06;;;;;;;14.13;2.50;;;;;;;2.40;86.22;101603.22;4915945;29;20465;-74
2023/12/27 05:01:32;;;;;;;15.05;2.20;;;;;;;2.57;85.27;101612.38;4916267;29;20052;-74
2023/12/27 05:03:59;;;;;;;17.08;2.08;;;;;;;2.58;86.47;101609.63;4916011;29;20127;-74
2023/12/27 05:06:26;;;;;;;21.65;2.47;;;;;;;2.70;85.52;101613.63;4915836;29;20052;-74
2023/12/27 05:08:52;;;;;;;19.60;3.22;;;;;;;2.70;85.52;101613.63;4914966;29;20052;-73
2023/12/27 05:11:19;;;;;;;16.65;2.55;;;;;;;2.62;85.69;101615.72;4916625;29;20100;-74
2023/12/27 05:13:47;;;;;;;16.88;2.75;;;;;;;2.79;84.86;101618.59;4915396;29;20044;-74
2023/12/27 05:16:15;;;;;;;13.65;2.03;;;;;;;2.80;84.60;101625.69;4914876;29;20056;-74
2023/12/27 05:18:43;;;;;;;19.23;2.55;;;;;;;2.65;85.19;101631.69;4915821;29;20048;-74
2023/12/27 05:21:12;;;;;;;23.45;2.63;;;;;;;2.61;85.71;101627.38;4915029;29;20048;-73
2023/12/27 05:23:38;;;;;;;21.38;2.78;;;;;;;2.63;85.51;101620.16;4898628;29;20048;-74
2023/12/27 05:26:05;;;;;;;22.20;2.50;;;;;;;2.58;85.96;101624.84;4916256;29;20059;-73
2023/12/27 05:28:32;;;;;;;34.33;2.88;;;;;;;2.47;85.87;101624.41;4915967;29;20048;-73
2023/12/27 05:31:00;;;;;;;23.48;2.17;;;;;;;2.52;85.56;101623.28;4915908;29;20473;-74
2023/12/27 05:33:27;;;;;;;18.73;2.42;;;;;;;2.34;86.77;101627.56;4916043;29;20152;-73
2023/12/27 05:35:54;;;;;;;17.08;2.17;;;;;;;2.43;86.84;101632.53;4915896;29;20050;-73
2023/12/27 05:38:23;;;;;;;15.82;1.98;;;;;;;2.17;85.58;101632.72;4915991;29;20047;-72
2023/12/27 05:40:50;;;;;;;16.65;1.75;;;;;;;2.30;87.09;101636.66;4916642;29;20489;-74
2023/12/27 05:43:17;;;;;;;22.48;2.58;;;;;;;2.19;86.07;101638.88;4915548;29;20055;-74
2023/12/27 05:45:43;;;;;;;29.90;3.08;;;;;;;2.13;87.00;101639.09;4915547;29;20052;-73
2023/12/27 05:48:10;;;;;;;22.73;2.20;;;;;;;2.16;87.24;101636.31;4921780;29;20504;-74
2023/12/27 05:50:37;;;;;;;19.27;1.92;;;;;;;2.21;86.11;101645.03;4934864;29;20531;-73
2023/12/27 05:53:03;;;;;;;12.80;2.08;;;;;;;2.13;85.73;101652.47;4916882;29;20055;-73
2023/12/27 05:55:31;;;;;;;20.63;3.28;;;;;;;2.06;86.31;101656.31;4915022;29;20052;-73
2023/12/27 05:57:58;;;;;;;16.73;1.90;;;;;;;2.13;86.77;101663.19;4915320;29;20095;-73
2023/12/27 06:00:25;;;;;;;18.73;2.55;;;;;;;2.10;86.82;101657.97;4914272;29;20090;-73
2023/12/27 06:02:52;;;;;;;18.98;2.15;;;;;;;2.19;86.14;101668.31;4915871;29;20413;-73
2023/12/27 06:05:19;;;;;;;17.92;2.20;;;;;;;2.13;87.45;101668.53;4914306;29;20056;-73
2023/12/27 06:07:46;;;;;;;19.52;2.95;;;;;;;2.12;87.39;101680.19;4915514;29;20409;-73
2023/12/27 06:10:14;;;;;;;20.63;2.42;;;;;;;2.17;87.06;101674.66;4915497;29;20560;-73
2023/12/27 06:12:41;;;;;;;20.63;2.78;;;;;;;2.12;87.21;101672.16;4915464;29;20048;-73
2023/12/27 06:15:09;;;;;;;34.38;3.42;;;;;;;2.14;86.72;101681.00;4915420;29;20056;-73
2023/12/27 06:17:36;;;;;;;27.00;4.20;;;;;;;2.06;86.76;101685.75;4915436;29;20044;-73
2023/12/27 06:20:06;;;;;;;26.45;5.80;;;;;;;1.94;87.39;101684.41;4915352;29;20056;-73
2023/12/27 06:22:32;;;;;;;22.42;2.78;;;;;;;1.99;87.58;101692.28;4915782;29;20048;-73
2023/12/27 06:25:00;;;;;;;28.23;3.22;;;;;;;2.11;88.38;101697.16;4915059;29;20139;-73
2023/12/27 06:27:26;;;;;;;20.10;2.60;;;;;;;1.93;87.76;101701.41;4915907;29;20417;-73
2023/12/27 06:29:54;;;;;;;18.42;2.33;;;;;;;2.09;87.64;101699.03;4915170;29;20052;-73
2023/12/27 06:32:20;;;;;;;13.90;2.40;;;;;;;2.17;87.44;101702.31;4915352;29;20074;-73
2023/12/27 06:34:47;;;;;;;18.55;2.55;;;;;;;2.30;87.08;101706.25;4915319;29;20154;-73
2023/12/27 06:37:13;;;;;;;20.17;2.63;;;;;;;2.40;87.12;101710.31;4915293;29;20516;-73
2023/12/27 06:39:42;;;;;;;22.77;2.65;;;;;;;2.67;84.81;101710.19;4914897;29;20048;-73
2023/12/27 06:42:09;;;;;;;21.27;3.30;;;;;;;2.60;85.78;101716.69;4914787;29;20048;-73
2023/12/27 06:44:36;;;;;;;27.58;3.85;;;;;;;2.47;85.05;101712.78;4914802;29;20043;-73
2023/12/27 06:47:03;;;;;;;15.55;2.05;;;;;;;2.49;85.51;101708.22;4897368;29;20478;-73
2023/12/27 06:49:30;;;;;;;16.50;2.13;;;;;;;2.60;85.56;101708.66;4914145;29;20061;-73
2023/12/27 06:51:56;;;;;;;13.60;2.33;;;;;;;2.61;85.07;101707.72;4914287;29;20066;-73
2023/12/27 06:54:23;;;;;;;19.48;2.50;;;;;;;2.49;85.05;101701.06;4915144;29;20136;-73
2023/12/27 06:56:50;;;;;;;18.58;1.98;;;;;;;2.63;85.14;101712.13;4914209;29;20055;-73
2023/12/27 06:59:17;;;;;;;21.90;2.35;;;;;;;2.77;83.95;101714.25;4913989;29;20059;-73
2023/12/27 07:01:43;;;;;;;18.13;2.92;;;;;;;2.71;83.95;101711.78;4914993;29;20060;-73
2023/12/27 07:04:10;;;;;;;20.73;2.55;;;;;;;2.63;84.14;101719.25;4915221;29;20136;-73
2023/12/27 07:06:38;;;;;;;10.30;2.13;;;;;;;2.59;84.91;101721.19;4914782;29;20473;-74
2023/12/27 07:09:07;;;;;;;20.20;2.53;;;;;;;2.69;84.71;101722.56;4914361;29;20048;-73
2023/12/27 07:11:33;;;;;;;16.83;3.40;;;;;;;2.69;84.49;101727.06;4914671;29;20136;-73
2023/12/27 07:14:00;;;;;;;25.95;2.40;;;;;;;2.59;84.45;101731.03;4897869;29;20433;-73
2023/12/27 07:16:27;;;;;;;30.75;2.42;;;;;;;2.61;84.58;101724.69;4914824;29;20048;-73
2023/12/27 07:18:56;;;;;;;23.92;3.00;;;;;;;2.72;85.30;101727.84;4915405;29;20568;-73
2023/12/27 07:21:23;;;;;;;24.15;2.55;;;;;;;2.87;83.42;101736.19;4914921;29;20054;-72
2023/12/27 07:23:50;;;;;;;16.02;2.13;;;;;;;2.76;84.13;101738.41;4898803;29;20111;-73
2023/12/27 07:26:16;;;;;;;17.70;2.20;;;;;;;2.71;83.73;101742.13;4914286;29;20051;-73
2023/12/27 07:28:43;;;;;;;20.13;2.38;;;;;;;2.74;84.06;101740.28;4914325;29;20051;-73
2023/12/27 07:31:10;;;;;;;20.20;2.30;;;;;;;2.74;84.13;101740.28;4913941;29;20063;-73
2023/12/27 07:33:37;;;;;;;19.63;2.70;;;;;;;2.82;83.35;101744.41;4913739;29;20050;-73
2023/12/27 07:36:05;;;;;;;17.25;2.60;;;;;;;2.90;82.78;101752.13;4914120;29;20059;-73
2023/12/27 07:38:32;;;;;;;25.30;2.67;;;;;;;2.70;83.55;101748.41;4913503;29;20048;-73
2023/12/27 07:40:58;;;;;;;24.77;2.65;;;;;;;2.84;83.16;101742.53;4914182;29;20107;-73
2023/12/27 07:43:25;;;;;;;29.58;3.00;;;;;;;2.82;83.88;101735.50;4914238;29;20056;-73
2023/12/27 07:45:52;;;;;;;17.55;3.00;;;;;;;2.82;83.61;101744.41;4914437;29;20432;-72
2023/12/27 07:48:18;;;;;;;21.13;2.47;;;;;;;2.83;83.93;101746.16;4914821;29;20055;-73
2023/12/27 07:50:46;;;;;;;21.63;2.80;;;;;;;3.03;83.77;101741.81;4913960;29;20052;-73
2023/12/27 07:53:12;;;;;;;18.17;2.60;;;;;;;3.05;82.82;101745.28;4914481;29;20059;-73
2023/12/27 07:55:39;;;;;;;17.90;3.03;;;;;;;2.97;82.86;101738.41;4897402;29;20711;-73
2023/12/27 07:58:06;;;;;;;13.43;2.28;;;;;;;3.01;82.79;101744.56;4913892;29;20048;-72
2023/12/27 08:00:32;;;;;;;20.98;2.97;;;;;;;2.98;82.37;101744.66;4916038;29;20706;-72
2023/12/27 08:02:59;;;;;;;12.25;2.75;;;;;;;2.97;82.07;101749.13;4917293;29;20473;-73
2023/12/27 08:05:26;;;;;;;15.68;2.00;;;;;;;3.10;82.65;101757.56;4917775;29;20068;-72
2023/12/27 08:07:52;;;;;;;27.08;3.00;;;;;;;2.92;82.09;101758.31;4917838;29;20104;-73
2023/12/27 08:10:21;;;;;;;17.35;2.03;;;;;;;2.89;83.06;101759.28;4917077;29;20055;-72
2023/12/27 08:12:48;;;;;;;30.13;3.17;;;;;;;2.90;82.80;101761.03;4917398;29;20044;-72
2023/12/27 08:15:15;;;;;;;18.52;2.40;;;;;;;2.90;82.16;101758.34;4900595;29;20058;-72
2023/12/27 08:17:42;;;;;;;18.98;1.98;;;;;;;2.85;82.67;101772.88;4917293;29;20055;-73
2023/12/27 08:20:10;;;;;;;20.88;2.90;;;;;;;2.82;82.90;101776.56;4917492;29;20072;-72
2023/12/27 08:22:37;;;;;;;17.17;2.92;;;;;;;2.74;83.40;101778.66;4917366;29;20048;-72
2023/12/27 08:25:05;;;;;;;15.88;2.10;;;;;;;2.68;83.69;101776.22;4918122;29;20059;-72
2023/12/27 08:27:32;;;;;;;24.98;2.67;;;;;;;2.75;83.32;101779.53;4917363;29;20394;-72
2023/12/27 08:29:58;;;;;;;19.00;2.75;;;;;;;2.69;83.90;101775.28;4917343;29;20044;-72
2023/12/27 08:32:25;;;;;;;15.18;3.47;;;;;;;2.86;82.39;101786.22;4917682;29;20055;-72
2023/12/27 08:34:52;;;;;;;23.45;2.65;;;;;;;2.73;82.95;101787.63;4917812;29;20533;-72
2023/12/27 08:37:18;;;;;;;16.17;2.90;;;;;;;2.83;83.38;101788.16;4917407;29;20051;-73
2023/12/27 08:39:45;;;;;;;18.15;3.00;;;;;;;2.95;83.23;101793.88;4917702;29;20044;-73
2023/12/27 08:42:11;;;;;;;19.48;3.33;;;;;;;2.95;82.17;101790.34;4916903;29;20044;-72
2023/12/27 08:44:38;;;;;;;19.38;2.40;;;;;;;2.98;82.49;101783.03;4917007;29;20051;-72
2023/12/27 08:47:05;;;;;;;33.28;2.75;;;;;;;2.86;82.08;101794.25;4916872;29;20115;-73
2023/12/27 08:49:31;;;;;;;23.25;3.65;;;;;;;2.95;82.84;101798.38;4916463;29;20052;-73
2023/12/27 08:51:58;;;;;;;19.77;2.35;;;;;;;2.88;82.71;101797.75;4916395;29;20052;-72
2023/12/27 08:54:25;;;;;;;24.42;2.42;;;;;;;2.86;82.22;101804.97;4928059;29;20496;-72
2023/12/27 08:56:52;;;;;;;21.83;2.88;;;;;;;2.79;82.84;101800.78;4936060;29;20468;-73
2023/12/27 08:59:18;;;;;;;23.27;3.13;;;;;;;2.77;82.94;101801.78;4935588;29;20107;-72
2023/12/27 09:01:48;;;;;;;16.98;2.63;;;;;;;2.94;83.25;101802.88;4935896;29;20047;-73
2023/12/27 09:04:14;;;;;;;17.55;2.92;;;;;;;2.93;83.08;101802.94;4935524;29;20060;-73
2023/12/27 09:06:43;;;;;;;18.98;3.63;;;;;;;2.92;83.33;101802.06;4935481;29;20067;-73
2023/12/27 09:09:11;;;;;;;24.75;3.28;;;;;;;2.84;83.13;101803.28;4935487;29;20596;-71
2023/12/27 09:11:39;;;;;;;17.63;2.88;;;;;;;3.05;82.95;101794.41;4935123;29;20051;-70
2023/12/27 09:14:08;;;;;;;19.90;3.35;;;;;;;3.10;81.95;101799.59;4935244;29;20496;-71
2023/12/27 09:16:35;;;;;;;17.45;2.53;;;;;;;3.19;82.07;101801.91;4935216;29;20047;-71
2023/12/27 09:19:02;;;;;;;18.58;2.67;;;;;;;3.43;81.14;101803.56;4918508;29;20118;-71
2023/12/27 09:21:29;;;;;;;20.15;2.63;;;;;;;3.27;81.03;101805.13;4935330;29;20523;-70
2023/12/27 09:23:57;;;;;;;18.27;2.17;;;;;;;3.34;81.62;101803.94;4935834;29;20102;-70
2023/12/27 09:26:24;;;;;;;24.45;2.58;;;;;;;3.55;79.44;101808.41;4935336;29;20048;-73
2023/12/27 09:28:51;;;;;;;23.50;3.55;;;;;;;3.57;79.62;101817.31;4935617;29;20051;-74
2023/12/27 09:31:17;;;;;;;17.42;2.63;;;;;;;3.48;80.05;101808.75;4934047;29;20127;-74
2023/12/27 09:33:45;;;;;;;20.15;3.20;;;;;;;3.47;80.29;101802.53;4934098;29;20052;-74
2023/12/27 09:36:12;;;;;;;22.80;3.60;;;;;;;3.51;80.55;101809.50;4933603;29;20055;-75
2023/12/27 09:38:39;;;;;;;18.92;2.90;;;;;;;3.80;78.78;101793.97;4917791;29;20047;-74
2023/12/27 09:41:07;;;;;;;18.88;2.92;;;;;;;4.09;77.90;101798.94;4933944;29;20059;-74
2023/12/27 09:43:36;;;;;;;27.27;2.78;;;;;;;4.11;77.63;101801.56;4934160;29;20059;-75
2023/12/27 09:46:07;;;;;;;25.92;4.32;;;;;;;4.08;78.26;101802.56;4932616;29;20434;-74
2023/12/27 09:48:35;;;;;;;19.27;3.13;;;;;;;4.11;78.15;101805.13;4933832;29;20051;-74
2023/12/27 09:51:04;;;;;;;26.48;5.30;;;;;;;4.12;78.32;101811.38;4933635;29;20047;-74
2023/12/27 09:53:30;;;;;;;21.70;3.30;;;;;;;4.36;77.35;101809.41;4913450;29;20048;-73
2023/12/27 09:55:57;;;;;;;15.10;2.40;;;;;;;4.51;77.03;101797.97;4914439;29;20055;-73
2023/12/27 09:58:28;;;;;;;16.20;3.38;;;;;;;4.76;74.94;101796.81;4914831;29;20473;-71
2023/12/27 10:00:56;;;;;;;18.48;3.10;;;;;;;5.16;72.75;101799.41;4914431;29;20052;-73
2023/12/27 10:03:32;;;;;;;43.25;3.00;;;;;;;5.44;71.48;101800.75;4915723;29;20072;-73
2023/12/27 10:06:14;;;;;;;20.52;2.97;;;;;;;6.04;68.09;101790.50;4913789;29;20099;-71
2023/12/27 10:08:41;;;;;;;16.05;3.35;;;;;;;6.10;68.61;101795.56;4914511;29;20101;-72
2023/12/27 10:11:10;;;;;;;20.40;3.08;;;;;;;6.54;66.26;101789.63;4916070;29;20063;-74
2023/12/27 10:13:40;;;;;;;12.30;2.60;;;;;;;6.64;65.74;101785.50;4914843;29;20470;-73
2023/12/27 10:16:07;;;;;;;14.75;2.67;;;;;;;7.09;64.27;101771.25;4898136;29;20116;-73
2023/12/27 10:18:34;;;;;;;14.60;2.90;;;;;;;6.77;64.37;101773.06;4914088;29;20159;-73
2023/12/27 10:21:01;;;;;;;19.88;2.92;;;;;;;6.84;65.71;101776.31;4913936;29;20051;-72
2023/12/27 10:23:28;;;;;;;17.52;2.85;;;;;;;6.72;64.88;101772.44;4913876;29;20139;-72
2023/12/27 10:25:55;;;;;;;23.15;2.78;;;;;;;6.27;66.18;101774.00;4914997;29;20048;-73
2023/12/27 10:28:25;;;;;;;21.77;2.88;;;;;;;6.36;66.06;101770.81;4914728;29;20111;-73
2023/12/27 10:30:52;;;;;;;16.38;3.00;;;;;;;6.26;66.66;101774.06;4914509;29;20055;-73
2023/12/27 10:33:20;;;;;;;22.08;3.35;;;;;;;6.08;67.24;101773.25;4913306;29;20058;-73
2023/12/27 10:35:54;;;;;;;17.70;3.10;;;;;;;5.73;67.63;101770.56;4914083;29;20055;-72
2023/12/27 10:38:21;;;;;;;15.75;2.65;;;;;;;5.76;68.67;101774.91;4914024;29;20048;-73
2023/12/27 10:40:51;;;;;;;25.33;4.03;;;;;;;5.55;69.49;101774.19;4914300;29;20048;-72
2023/12/27 10:43:18;;;;;;;12.45;2.47;;;;;;;5.27;70.02;101778.25;4906090;29;20044;-73
2023/12/27 10:45:45;;;;;;;20.50;3.28;;;;;;;5.16;71.08;101769.84;4913657;29;20079;-73
2023/12/27 10:48:13;;;;;;;17.95;3.30;;;;;;;4.95;72.02;101760.09;4912897;29;20052;-74
2023/12/27 10:50:42;;;;;;;15.82;2.95;;;;;;;5.03;71.65;101763.28;4913467;29;20521;-74
2023/12/27 10:53:14;;;;;;;17.95;3.28;;;;;;;5.09;71.86;101754.94;4915724;29;20124;-73
2023/12/27 10:55:42;;;;;;;13.68;3.55;;;;;;;5.39;71.39;101743.59;4933251;29;20073;-73
2023/12/27 10:58:18;;;;;;;23.70;3.65;;;;;;;5.56;70.19;101727.47;4932427;29;20071;-73
2023/12/27 11:00:46;;;;;;;19.90;3.90;;;;;;;5.80;68.94;101718.16;4932639;29;20055;-73
2023/12/27 11:03:14;;;;;;;16.42;3.38;;;;;;;5.52;69.16;101725.91;4932368;29;20081;-74
2023/12/27 11:05:42;;;;;;;16.55;3.72;;;;;;;5.64;69.56;101727.09;4915929;29;20115;-73
2023/12/27 11:08:13;;;;;;;16.20;3.17;;;;;;;5.64;69.27;101727.97;4931975;29;20048;-73
2023/12/27 11:10:40;;;;;;;18.75;3.33;;;;;;;5.57;69.26;101729.22;4933305;29;20051;-74
2023/12/27 11:13:10;;;;;;;19.23;3.28;;;;;;;5.47;69.36;101730.63;4931488;29;20574;-73
2023/12/27 11:15:39;;;;;;;23.90;3.72;;;;;;;5.13;70.99;101726.94;4932532;29;20054;-73
2023/12/27 11:18:08;;;;;;;18.00;2.83;;;;;;;5.39;69.64;101731.00;4931915;29;20052;-73
2023/12/27 11:20:36;;;;;;;20.48;3.10;;;;;;;5.26;70.65;101733.47;4931386;29;20138;-74
2023/12/27 11:23:03;;;;;;;19.80;3.08;;;;;;;5.26;70.60;101730.78;4930619;29;20566;-73
2023/12/27 11:25:30;;;;;;;14.13;3.25;;;;;;;5.22;70.75;101736.38;4931775;29;20111;-74